createdAt,value
2017-07-09T00:01:07.179Z,17.90
2017-07-09T00:03:35.122Z,18.00
2017-07-09T00:06:03.045Z,18.00
2017-07-09T00:08:30.968Z,17.90
2017-07-09T00:10:58.875Z,18.00
2017-07-09T00:13:26.752Z,18.00
2017-07-09T00:15:54.682Z,18.10
2017-07-09T00:18:23.038Z,18.20
2017-07-09T00:20:50.915Z,18.20
2017-07-09T00:23:18.838Z,18.20
2017-07-09T00:25:46.712Z,18.20
2017-07-09T00:28:14.565Z,18.10
2017-07-09T00:30:43.454Z,18.20
2017-07-09T00:33:12.097Z,18.30
2017-07-09T00:35:44.625Z,18.30
2017-07-09T00:38:13.246Z,18.30
2017-07-09T00:40:41.178Z,18.30
2017-07-09T00:43:09.126Z,18.30
2017-07-09T00:45:37.771Z,17.90
2017-07-09T00:48:05.711Z,17.90
2017-07-09T00:50:33.544Z,17.90
2017-07-09T00:53:01.399Z,17.90
2017-07-09T00:55:29.333Z,17.80
2017-07-09T00:57:57.263Z,17.80
2017-07-09T01:00:25.116Z,17.80
2017-07-09T01:02:53.039Z,17.80
2017-07-09T01:05:20.915Z,17.80
2017-07-09T01:07:48.826Z,17.70
2017-07-09T01:10:16.796Z,17.80
2017-07-09T01:12:44.667Z,17.80
2017-07-09T01:15:12.552Z,17.90
2017-07-09T01:17:40.458Z,18.00
2017-07-09T01:20:08.324Z,18.00
2017-07-09T01:22:36.221Z,18.00
2017-07-09T01:25:04.047Z,18.00
2017-07-09T01:27:31.954Z,18.00
2017-07-09T01:29:59.829Z,18.00
2017-07-09T01:32:28.480Z,18.00
2017-07-09T01:34:56.433Z,18.00
2017-07-09T01:37:24.298Z,18.00
2017-07-09T01:39:52.225Z,18.00
2017-07-09T01:42:20.962Z,18.10
2017-07-09T01:44:48.899Z,18.10
2017-07-09T01:47:16.832Z,18.20
2017-07-09T01:49:44.715Z,18.20
2017-07-09T01:52:12.575Z,18.20
2017-07-09T01:54:40.531Z,18.10
2017-07-09T01:57:08.504Z,18.20
2017-07-09T01:59:36.435Z,18.10
2017-07-09T02:02:04.648Z,18.10
2017-07-09T02:04:32.523Z,18.10
2017-07-09T02:07:00.407Z,18.00
2017-07-09T02:09:28.335Z,17.90
2017-07-09T02:11:56.191Z,17.90
2017-07-09T02:14:24.049Z,18.00
2017-07-09T02:16:51.969Z,18.10
2017-07-09T02:19:19.856Z,18.00
2017-07-09T02:21:47.784Z,18.00
2017-07-09T02:24:15.633Z,18.10
2017-07-09T02:26:43.850Z,18.10
2017-07-09T02:29:11.741Z,18.10
2017-07-09T02:31:39.595Z,18.10
2017-07-09T02:34:08.315Z,18.20
2017-07-09T02:36:36.187Z,18.20
2017-07-09T02:39:04.202Z,18.20
2017-07-09T02:41:32.134Z,18.20
2017-07-09T02:43:59.995Z,18.10
2017-07-09T02:46:27.952Z,18.10
2017-07-09T02:48:55.857Z,18.10
2017-07-09T02:51:23.731Z,18.10
2017-07-09T02:53:51.657Z,18.10
2017-07-09T02:56:20.304Z,18.10
2017-07-09T02:58:48.199Z,18.10
2017-07-09T03:01:16.103Z,18.10
2017-07-09T03:03:44.745Z,18.00
2017-07-09T03:06:12.604Z,18.00
2017-07-09T03:08:40.572Z,17.90
2017-07-09T03:11:08.470Z,17.90
2017-07-09T03:13:36.368Z,17.90
2017-07-09T03:16:04.281Z,17.90
2017-07-09T03:18:32.217Z,17.90
2017-07-09T03:21:00.883Z,17.90
2017-07-09T03:23:28.785Z,17.90
2017-07-09T03:25:56.683Z,18.00
2017-07-09T03:28:24.541Z,18.10
2017-07-09T03:30:52.527Z,18.10
2017-07-09T03:33:20.397Z,18.10
2017-07-09T03:35:48.310Z,18.10
2017-07-09T03:38:17.235Z,18.20
2017-07-09T03:40:45.860Z,18.40
2017-07-09T03:43:13.741Z,18.40
2017-07-09T03:45:43.470Z,18.50
2017-07-09T03:48:12.358Z,18.70
2017-07-09T03:50:40.237Z,18.90
2017-07-09T03:53:08.191Z,19.00
2017-07-09T03:55:36.127Z,19.20
2017-07-09T03:58:04.017Z,19.30
2017-07-09T04:00:33.447Z,19.50
2017-07-09T04:03:01.290Z,19.50
2017-07-09T04:05:29.917Z,19.60
2017-07-09T04:07:57.980Z,19.50
2017-07-09T04:10:25.863Z,19.60
2017-07-09T04:12:53.899Z,19.60
2017-07-09T04:15:23.542Z,19.70
2017-07-09T04:17:53.170Z,19.80
2017-07-09T04:20:21.033Z,19.90
2017-07-09T04:22:49.973Z,20.00
2017-07-09T04:25:17.864Z,20.10
2017-07-09T04:27:46.949Z,20.10
2017-07-09T04:30:15.812Z,20.10
2017-07-09T04:32:44.464Z,20.20
2017-07-09T04:35:12.335Z,20.20
2017-07-09T04:37:41.431Z,20.20
2017-07-09T04:40:09.316Z,20.20
2017-07-09T04:42:37.261Z,20.20
2017-07-09T04:45:05.961Z,20.20
2017-07-09T04:47:33.881Z,20.20
2017-07-09T04:50:01.783Z,20.20
2017-07-09T04:52:30.565Z,20.30
2017-07-09T04:54:59.639Z,20.30
2017-07-09T04:57:28.477Z,20.30
2017-07-09T04:59:57.176Z,20.40
2017-07-09T05:02:25.053Z,20.30
2017-07-09T05:04:52.904Z,20.40
2017-07-09T05:07:21.596Z,20.60
2017-07-09T05:09:51.799Z,20.60
2017-07-09T05:12:21.142Z,20.60
2017-07-09T05:14:49.799Z,20.80
2017-07-09T05:17:18.133Z,21.00
2017-07-09T05:19:46.042Z,21.10
2017-07-09T05:22:13.918Z,21.10
2017-07-09T05:24:41.826Z,21.10
2017-07-09T05:27:10.738Z,21.00
2017-07-09T05:29:38.890Z,21.00
2017-07-09T05:32:07.691Z,20.70
2017-07-09T05:34:36.480Z,20.40
2017-07-09T05:37:04.372Z,20.40
2017-07-09T05:39:32.203Z,19.80
2017-07-09T05:42:00.041Z,19.40
2017-07-09T05:44:27.916Z,19.10
2017-07-09T05:46:55.798Z,18.90
2017-07-09T05:49:23.684Z,18.70
2017-07-09T05:51:51.554Z,18.70
2017-07-09T05:54:19.438Z,18.50
2017-07-09T05:56:48.203Z,18.40
2017-07-09T05:59:16.072Z,18.40
2017-07-09T06:01:43.925Z,18.40
2017-07-09T06:04:19.199Z,18.40
2017-07-09T06:06:55.675Z,18.40
2017-07-09T06:09:24.584Z,18.40
2017-07-09T06:11:52.444Z,18.40
2017-07-09T06:14:20.335Z,18.50
2017-07-09T06:16:49.001Z,18.60
2017-07-09T06:19:16.952Z,18.60
2017-07-09T06:21:44.847Z,18.70
2017-07-09T06:24:12.763Z,18.80
2017-07-09T06:26:40.609Z,19.00
2017-07-09T06:29:09.247Z,19.30
2017-07-09T06:31:39.223Z,19.30
2017-07-09T06:34:08.436Z,19.60
2017-07-09T06:36:36.272Z,19.60
2017-07-09T06:39:05.036Z,19.70
2017-07-09T06:41:33.188Z,19.70
2017-07-09T06:44:01.073Z,19.80
2017-07-09T06:46:29.037Z,19.80
2017-07-09T06:48:56.876Z,19.90
2017-07-09T06:51:26.137Z,20.10
2017-07-09T06:53:54.864Z,20.10
2017-07-09T06:56:23.054Z,20.10
2017-07-09T06:58:51.693Z,20.00
2017-07-09T07:01:19.551Z,19.90
2017-07-09T07:03:47.430Z,19.90
2017-07-09T07:06:15.349Z,20.00
2017-07-09T07:08:43.982Z,20.20
2017-07-09T07:11:11.854Z,20.10
2017-07-09T07:13:39.855Z,20.20
2017-07-09T07:16:07.756Z,20.00
2017-07-09T07:18:35.635Z,19.70
2017-07-09T07:21:03.552Z,19.50
2017-07-09T07:23:31.479Z,19.30
2017-07-09T07:25:59.358Z,19.10
2017-07-09T07:28:28.988Z,19.00
2017-07-09T07:30:56.830Z,19.10
2017-07-09T07:33:25.433Z,19.20
2017-07-09T07:35:53.326Z,19.20
2017-07-09T07:38:21.222Z,19.50
2017-07-09T07:40:49.117Z,19.70
2017-07-09T07:43:17.037Z,20.00
2017-07-09T07:45:44.902Z,20.20
2017-07-09T07:48:12.777Z,20.50
2017-07-09T07:50:40.697Z,20.70
2017-07-09T07:53:08.546Z,20.60
2017-07-09T07:55:36.444Z,20.60
2017-07-09T07:58:05.420Z,20.30
2017-07-09T08:00:33.972Z,20.30
2017-07-09T08:03:02.028Z,20.40
2017-07-09T08:05:31.695Z,20.50
2017-07-09T08:07:59.878Z,20.60
2017-07-09T08:10:43.685Z,20.40
2017-07-09T08:13:12.387Z,20.40
2017-07-09T08:15:40.482Z,20.40
2017-07-09T08:18:08.454Z,20.60
2017-07-09T08:20:37.544Z,20.70
2017-07-09T08:23:14.704Z,20.90
2017-07-09T08:25:44.019Z,21.10
2017-07-09T08:28:13.194Z,21.30
2017-07-09T08:30:41.823Z,21.60
2017-07-09T08:33:09.949Z,22.00
2017-07-09T08:35:37.912Z,22.30
2017-07-09T08:38:06.771Z,22.90
2017-07-09T08:40:35.117Z,22.90
2017-07-09T08:43:04.876Z,23.70
2017-07-09T08:45:33.895Z,25.70
2017-07-09T08:48:02.957Z,25.60
2017-07-09T08:50:31.785Z,27.20
2017-07-09T08:53:00.726Z,27.70
2017-07-09T08:55:30.695Z,27.70
2017-07-09T08:57:59.432Z,28.20
2017-07-09T09:00:27.895Z,28.70
2017-07-09T09:02:56.204Z,29.30
2017-07-09T09:05:24.811Z,30.20
2017-07-09T09:07:53.817Z,30.50
2017-07-09T09:10:23.606Z,31.30
2017-07-09T09:12:51.538Z,31.30
2017-07-09T09:15:19.855Z,31.50
2017-07-09T09:17:48.031Z,31.70
2017-07-09T09:20:16.045Z,31.70
2017-07-09T09:22:45.189Z,30.50
2017-07-09T09:25:13.666Z,30.50
2017-07-09T09:27:42.867Z,29.90
2017-07-09T09:30:11.891Z,29.90
2017-07-09T09:32:39.966Z,29.50
2017-07-09T09:35:11.909Z,29.70
2017-07-09T09:37:41.418Z,29.40
2017-07-09T09:40:13.553Z,29.20
2017-07-09T09:42:44.103Z,28.90
2017-07-09T09:45:12.278Z,28.90
2017-07-09T09:47:41.396Z,28.80
2017-07-09T09:50:09.587Z,28.70
2017-07-09T09:52:37.836Z,29.00
2017-07-09T09:55:06.970Z,28.90
2017-07-09T09:57:36.160Z,28.70
2017-07-09T10:00:04.418Z,28.70
2017-07-09T10:02:33.337Z,29.50
2017-07-09T10:05:02.822Z,30.70
2017-07-09T10:07:31.686Z,30.60
2017-07-09T10:09:59.705Z,31.60
2017-07-09T10:12:27.715Z,32.70
2017-07-09T10:14:55.670Z,33.60
2017-07-09T10:17:23.680Z,34.30
2017-07-09T10:19:51.615Z,35.10
2017-07-09T10:22:20.554Z,34.90
2017-07-09T10:24:48.762Z,34.80
2017-07-09T10:27:17.667Z,34.80
2017-07-09T10:29:46.581Z,33.70
2017-07-09T10:32:14.780Z,33.60
2017-07-09T10:34:43.112Z,32.50
2017-07-09T10:37:11.603Z,32.70
2017-07-09T10:39:39.888Z,32.60
2017-07-09T10:42:08.262Z,32.60
2017-07-09T10:44:36.725Z,32.60
2017-07-09T10:47:04.656Z,32.00
2017-07-09T10:49:32.597Z,32.40
2017-07-09T10:52:00.604Z,32.90
2017-07-09T10:54:28.500Z,34.20
2017-07-09T10:56:56.376Z,35.60
2017-07-09T10:59:24.366Z,35.70
2017-07-09T11:01:52.232Z,36.10
2017-07-09T11:04:20.120Z,36.60
2017-07-09T11:06:48.178Z,36.20
2017-07-09T11:09:16.300Z,36.20
2017-07-09T11:11:44.212Z,36.30
2017-07-09T11:14:12.202Z,36.00
2017-07-09T11:16:40.441Z,36.70
2017-07-09T11:19:08.342Z,36.70
2017-07-09T11:21:36.310Z,36.40
2017-07-09T11:24:04.277Z,36.70
2017-07-09T11:26:32.222Z,37.00
2017-07-09T11:29:00.909Z,37.80
2017-07-09T11:31:29.592Z,37.60
2017-07-09T11:34:01.716Z,37.70
2017-07-09T11:36:39.120Z,37.60
2017-07-09T11:39:07.089Z,38.70
2017-07-09T11:41:35.029Z,39.10
2017-07-09T11:44:02.935Z,38.90
2017-07-09T11:46:30.867Z,38.70
2017-07-09T11:48:58.817Z,38.90
2017-07-09T11:51:27.518Z,37.50
2017-07-09T11:53:55.391Z,37.40
2017-07-09T11:56:23.258Z,37.70
2017-07-09T11:58:51.178Z,37.70
2017-07-09T12:01:19.056Z,37.60
2017-07-09T12:03:46.958Z,37.80
2017-07-09T12:06:14.873Z,37.30
2017-07-09T12:08:42.749Z,37.20
2017-07-09T12:11:10.613Z,37.90
2017-07-09T12:13:38.486Z,38.90
2017-07-09T12:16:06.448Z,38.80
2017-07-09T12:18:34.366Z,39.10
2017-07-09T12:21:02.298Z,38.70
2017-07-09T12:23:30.154Z,39.00
2017-07-09T12:25:58.913Z,39.20
2017-07-09T12:28:26.944Z,39.20
2017-07-09T12:30:54.814Z,39.90
2017-07-09T12:33:28.899Z,39.20
2017-07-09T12:35:56.839Z,38.80
2017-07-09T12:38:24.729Z,39.30
2017-07-09T12:40:52.612Z,40.30
2017-07-09T12:43:20.779Z,40.60
2017-07-09T12:45:48.658Z,40.60
2017-07-09T12:48:16.530Z,40.60
2017-07-09T12:50:44.476Z,39.50
2017-07-09T12:53:12.370Z,39.30
2017-07-09T12:55:40.245Z,39.90
2017-07-09T12:58:08.234Z,40.80
2017-07-09T13:00:37.537Z,41.50
2017-07-09T13:03:06.463Z,41.30
2017-07-09T13:05:34.332Z,40.20
2017-07-09T13:08:02.316Z,39.40
2017-07-09T13:10:30.406Z,38.70
2017-07-09T13:12:58.275Z,38.00
2017-07-09T13:15:26.182Z,38.10
2017-07-09T13:17:54.314Z,38.10
2017-07-09T13:20:22.281Z,38.40
2017-07-09T13:22:50.171Z,38.10
2017-07-09T13:25:18.176Z,37.60
2017-07-09T13:27:46.040Z,36.50
2017-07-09T13:30:13.877Z,36.30
2017-07-09T13:32:41.838Z,36.50
2017-07-09T13:35:09.705Z,36.40
2017-07-09T13:37:37.569Z,36.00
2017-07-09T13:40:05.511Z,35.70
2017-07-09T13:42:33.420Z,35.80
2017-07-09T13:45:01.295Z,36.00
2017-07-09T13:47:29.224Z,36.70
2017-07-09T13:49:57.162Z,37.10
2017-07-09T13:52:24.997Z,36.90
2017-07-09T13:54:55.436Z,37.00
2017-07-09T13:57:24.441Z,36.90
2017-07-09T13:59:52.406Z,37.30
2017-07-09T14:02:20.347Z,37.30
2017-07-09T14:04:48.214Z,36.80
2017-07-09T14:07:16.867Z,35.70
2017-07-09T14:09:45.573Z,35.70
2017-07-09T14:12:21.333Z,34.90
2017-07-09T14:14:49.320Z,33.90
2017-07-09T14:17:17.252Z,33.00
2017-07-09T14:19:45.171Z,32.50
2017-07-09T14:22:13.153Z,31.70
2017-07-09T14:24:42.267Z,30.60
2017-07-09T14:27:10.300Z,30.60
2017-07-09T14:29:38.236Z,30.30
2017-07-09T14:32:06.169Z,29.80
2017-07-09T14:34:34.085Z,29.60
2017-07-09T14:37:02.111Z,29.30
2017-07-09T14:39:29.991Z,28.80
2017-07-09T14:41:58.695Z,28.20
2017-07-09T14:44:26.625Z,28.10
2017-07-09T14:46:54.541Z,27.50
2017-07-09T14:49:22.442Z,27.30
2017-07-09T14:51:51.341Z,27.20
2017-07-09T14:54:19.329Z,27.10
2017-07-09T14:56:47.242Z,26.90
2017-07-09T14:59:15.288Z,26.70
2017-07-09T15:01:43.171Z,26.70
2017-07-09T15:04:11.125Z,26.80
2017-07-09T15:06:39.612Z,26.90
2017-07-09T15:09:07.614Z,26.80
2017-07-09T15:11:36.316Z,27.10
2017-07-09T15:14:04.225Z,27.10
2017-07-09T15:16:32.100Z,27.20
2017-07-09T15:19:00.072Z,27.30
2017-07-09T15:21:27.957Z,27.50
2017-07-09T15:23:55.833Z,27.80
2017-07-09T15:26:23.738Z,28.10
2017-07-09T15:28:51.798Z,28.50
2017-07-09T15:31:19.660Z,29.20
2017-07-09T15:33:47.597Z,30.20
2017-07-09T15:36:15.632Z,30.50
2017-07-09T15:38:43.467Z,30.50
2017-07-09T15:41:11.816Z,30.20
2017-07-09T15:43:39.769Z,30.00
2017-07-09T15:46:08.425Z,29.60
2017-07-09T15:48:36.325Z,29.50
2017-07-09T15:51:05.298Z,29.10
2017-07-09T15:53:33.217Z,28.70
2017-07-09T15:56:01.919Z,27.80
2017-07-09T15:58:29.776Z,27.70
2017-07-09T16:00:59.220Z,27.20
2017-07-09T16:03:27.169Z,27.20
2017-07-09T16:05:55.329Z,27.10
2017-07-09T16:08:23.278Z,27.20
2017-07-09T16:10:51.232Z,26.90
2017-07-09T16:13:19.322Z,26.90
2017-07-09T16:15:47.228Z,26.90
2017-07-09T16:18:16.096Z,26.40
2017-07-09T16:20:44.301Z,26.40
2017-07-09T16:23:13.105Z,25.80
2017-07-09T16:25:49.906Z,25.50
2017-07-09T16:28:20.953Z,25.40
2017-07-09T16:30:49.167Z,25.40
2017-07-09T16:33:18.062Z,25.30
2017-07-09T16:35:46.716Z,25.40
2017-07-09T16:38:14.632Z,25.40
2017-07-09T16:40:43.039Z,25.40
2017-07-09T16:43:11.764Z,25.40
2017-07-09T16:45:42.409Z,25.50
2017-07-09T16:48:11.522Z,25.70
2017-07-09T16:50:39.413Z,25.80
2017-07-09T16:53:10.069Z,26.60
2017-07-09T16:55:39.277Z,26.60
2017-07-09T16:58:09.483Z,26.90
2017-07-09T17:00:43.353Z,27.40
2017-07-09T17:03:11.299Z,27.40
2017-07-09T17:05:39.685Z,27.40
2017-07-09T17:08:09.386Z,27.30
2017-07-09T17:10:37.916Z,27.10
2017-07-09T17:13:05.984Z,27.00
2017-07-09T17:15:34.045Z,26.80
2017-07-09T17:18:02.055Z,26.80
2017-07-09T17:20:29.994Z,26.70
2017-07-09T17:22:58.938Z,26.60
2017-07-09T17:25:27.025Z,26.30
2017-07-09T17:27:55.085Z,26.10
2017-07-09T17:30:22.969Z,25.70
2017-07-09T17:32:51.676Z,25.20
2017-07-09T17:35:19.864Z,25.20
2017-07-09T17:37:48.750Z,25.00
2017-07-09T17:40:16.825Z,24.90
2017-07-09T17:42:45.620Z,24.80
2017-07-09T17:45:13.566Z,24.70
2017-07-09T17:47:42.230Z,24.80
2017-07-09T17:50:10.776Z,24.60
2017-07-09T17:52:39.207Z,24.40
2017-07-09T17:55:08.836Z,24.20
2017-07-09T17:57:37.554Z,24.00
2017-07-09T18:00:06.328Z,24.00
2017-07-09T18:02:35.296Z,23.90
2017-07-09T18:05:05.082Z,23.90
2017-07-09T18:07:33.585Z,23.80
2017-07-09T18:10:02.053Z,23.80
2017-07-09T18:12:31.586Z,23.80
2017-07-09T18:15:01.033Z,23.70
2017-07-09T18:17:29.579Z,23.60
2017-07-09T18:19:58.159Z,23.60
2017-07-09T18:22:26.892Z,23.50
2017-07-09T18:24:56.569Z,23.40
2017-07-09T18:27:25.849Z,23.40
2017-07-09T18:29:54.420Z,23.30
2017-07-09T18:32:23.943Z,23.20
2017-07-09T18:34:52.890Z,23.20
2017-07-09T18:37:23.190Z,23.10
2017-07-09T18:39:51.835Z,23.00
2017-07-09T18:42:20.204Z,22.90
2017-07-09T18:44:49.625Z,22.80
2017-07-09T18:47:17.600Z,22.70
2017-07-09T18:49:45.811Z,22.70
2017-07-09T18:52:14.088Z,22.70
2017-07-09T18:54:42.433Z,22.60
2017-07-09T18:57:10.797Z,22.70
2017-07-09T18:59:38.768Z,22.60
2017-07-09T19:02:06.673Z,22.50
2017-07-09T19:04:34.647Z,22.50
2017-07-09T19:07:02.580Z,22.40
2017-07-09T19:09:30.503Z,22.40
2017-07-09T19:11:58.426Z,22.30
2017-07-09T19:14:26.472Z,22.40
2017-07-09T19:16:54.356Z,22.30
2017-07-09T19:19:23.459Z,22.40
2017-07-09T19:21:51.399Z,22.30
2017-07-09T19:24:19.398Z,22.20
2017-07-09T19:26:47.470Z,22.10
2017-07-09T19:29:15.576Z,21.60
2017-07-09T19:31:43.457Z,21.30
2017-07-09T19:34:12.381Z,20.90
2017-07-09T19:36:40.266Z,20.70
2017-07-09T19:39:08.211Z,20.50
2017-07-09T19:41:36.230Z,20.30
2017-07-09T19:44:04.212Z,20.20
2017-07-09T19:46:33.195Z,19.90
2017-07-09T19:49:01.136Z,19.80
2017-07-09T19:51:29.082Z,19.60
2017-07-09T19:53:59.477Z,19.30
2017-07-09T19:56:27.518Z,19.10
2017-07-09T19:58:55.702Z,18.90
2017-07-09T20:01:23.992Z,18.80
2017-07-09T20:03:52.135Z,18.80
2017-07-09T20:06:20.261Z,18.70
2017-07-09T20:08:48.597Z,18.60
2017-07-09T20:11:16.817Z,18.60
2017-07-09T20:13:45.210Z,18.60
2017-07-09T20:16:13.571Z,18.60
2017-07-09T20:18:41.950Z,18.70
2017-07-09T20:21:10.034Z,18.70
2017-07-09T20:23:38.356Z,18.60
2017-07-09T20:26:06.537Z,18.50
2017-07-09T20:28:34.749Z,18.50
2017-07-09T20:31:02.852Z,18.50
2017-07-09T20:33:30.968Z,18.50
2017-07-09T20:35:59.219Z,18.50
2017-07-09T20:38:27.611Z,18.50
2017-07-09T20:40:55.691Z,18.50
2017-07-09T20:43:23.899Z,18.50
2017-07-09T20:45:52.862Z,18.40
2017-07-09T20:48:21.191Z,18.40
2017-07-09T20:50:50.109Z,18.40
2017-07-09T20:53:18.047Z,18.40
2017-07-09T20:55:46.123Z,18.40
2017-07-09T20:58:16.867Z,18.40
2017-07-09T21:00:46.493Z,18.40
2017-07-09T21:03:15.391Z,18.40
2017-07-09T21:05:44.337Z,18.40
2017-07-09T21:08:12.568Z,18.40
2017-07-09T21:10:40.470Z,18.40
2017-07-09T21:13:08.371Z,18.40
2017-07-09T21:15:36.286Z,18.40
2017-07-09T21:18:04.191Z,18.40
2017-07-09T21:20:32.068Z,18.40
2017-07-09T21:23:00.013Z,18.50
2017-07-09T21:25:28.703Z,18.50
2017-07-09T21:27:57.508Z,18.50
2017-07-09T21:30:25.440Z,18.50
2017-07-09T21:32:53.302Z,18.50
2017-07-09T21:35:21.180Z,18.60
2017-07-09T21:37:49.093Z,18.60
2017-07-09T21:40:16.954Z,18.60
2017-07-09T21:42:45.611Z,18.60
2017-07-09T21:45:13.532Z,18.60
2017-07-09T21:47:41.439Z,18.60
2017-07-09T21:50:09.332Z,18.60
2017-07-09T21:52:37.263Z,18.60
2017-07-09T21:55:05.161Z,18.60
2017-07-09T21:57:33.127Z,18.60
2017-07-09T22:00:01.054Z,18.60
2017-07-09T22:02:28.940Z,18.60
2017-07-09T22:04:56.837Z,18.60
2017-07-09T22:07:24.751Z,18.70
2017-07-09T22:09:53.399Z,18.60
2017-07-09T22:12:21.301Z,18.60
2017-07-09T22:14:49.249Z,18.60
2017-07-09T22:17:17.153Z,18.60
2017-07-09T22:19:46.200Z,18.60
2017-07-09T22:22:14.120Z,18.60
2017-07-09T22:24:42.055Z,18.60
2017-07-09T22:27:09.947Z,18.60
2017-07-09T22:29:37.891Z,18.60
2017-07-09T22:32:05.855Z,18.60
2017-07-09T22:34:33.754Z,18.60
2017-07-09T22:37:01.696Z,18.60
2017-07-09T22:39:29.584Z,18.60
2017-07-09T22:41:57.482Z,18.60
2017-07-09T22:44:25.421Z,18.70
2017-07-09T22:46:53.279Z,18.50
2017-07-09T22:49:23.205Z,18.50
2017-07-09T22:51:51.189Z,18.50
2017-07-09T22:54:19.093Z,18.50
2017-07-09T22:56:47.826Z,18.50
2017-07-09T22:59:15.724Z,18.40
2017-07-09T23:01:43.574Z,18.50
2017-07-09T23:04:11.542Z,18.50
2017-07-09T23:06:40.187Z,18.40
2017-07-09T23:09:08.057Z,18.40
2017-07-09T23:11:35.970Z,18.30
2017-07-09T23:14:04.639Z,18.30
2017-07-09T23:16:32.584Z,18.30
2017-07-09T23:19:00.486Z,18.30
2017-07-09T23:21:28.350Z,18.30
2017-07-09T23:23:56.314Z,18.40
2017-07-09T23:26:24.360Z,18.40
2017-07-09T23:28:52.804Z,18.40
2017-07-09T23:31:20.718Z,18.40
2017-07-09T23:33:49.179Z,18.40
2017-07-09T23:36:19.456Z,18.30
2017-07-09T23:38:47.359Z,18.30
2017-07-09T23:41:16.034Z,18.20
2017-07-09T23:43:43.895Z,18.20
2017-07-09T23:46:11.793Z,18.10
2017-07-09T23:48:40.513Z,17.90
2017-07-09T23:51:08.404Z,17.90
2017-07-09T23:53:36.275Z,17.90
2017-07-09T23:56:04.209Z,17.80
2017-07-09T23:58:32.088Z,17.80
